Time;durP1;ratioP1;P1;durP2;ratioP2;P2;SDS_P1;SDS_P2;PMS_P1;PMS_P2;Temp;Humidity;BMP_temperature;BMP_pressure;BME280_temperature;BME280_humidity;BME280_pressure;Samples;Min_cycle;Max_cycle;Signal;HPM_P1;HPM_P2
2021/07/22 00:00:37;;;;;;;12.38;11.05;;;;;;;23.40;51.09;102423.69;4977602;28;20538;-74
2021/07/22 00:03:02;;;;;;;13.77;10.98;;;;;;;23.39;50.85;102429.84;4977639;28;20437;-74
2021/07/22 00:05:28;;;;;;;13.13;11.23;;;;;;;23.40;51.15;102421.06;4943692;28;20054;-74
2021/07/22 00:07:59;;;;;;;15.68;10.82;;;;;;;23.39;50.89;102421.06;4977630;28;20050;-74
2021/07/22 00:10:24;;;;;;;13.82;11.07;;;;;;;23.40;51.09;102417.53;4960006;28;20081;-74
2021/07/22 00:12:50;;;;;;;14.00;10.70;;;;;;;23.38;51.05;102420.16;4944117;28;20031;-74
2021/07/22 00:15:15;;;;;;;12.68;11.30;;;;;;;23.39;51.04;102413.13;4960146;28;20044;-74
2021/07/22 00:17:40;;;;;;;12.73;11.43;;;;;;;23.39;51.16;102414.00;4977393;28;20106;-74
2021/07/22 00:20:06;;;;;;;12.77;11.20;;;;;;;23.38;51.13;102414.00;4960101;28;20073;-74
2021/07/22 00:22:35;;;;;;;14.98;11.25;;;;;;;23.41;51.22;102419.28;4944069;28;20481;-74
2021/07/22 00:25:00;;;;;;;16.35;12.23;;;;;;;23.40;51.29;102412.25;4977172;28;20385;-74
2021/07/22 00:27:26;;;;;;;12.60;11.27;;;;;;;23.38;51.17;102412.25;4959951;28;20058;-74
2021/07/22 00:29:51;;;;;;;15.23;11.68;;;;;;;23.40;51.28;102415.78;4960223;28;20531;-74
2021/07/22 00:32:16;;;;;;;15.57;12.23;;;;;;;23.39;51.32;102402.56;4977685;28;20405;-74
2021/07/22 00:34:42;;;;;;;14.10;11.15;;;;;;;23.38;51.28;102400.81;4978683;28;20472;-74
2021/07/22 00:37:07;;;;;;;14.77;11.80;;;;;;;23.35;51.32;102398.19;4978509;28;20035;-74
2021/07/22 00:39:33;;;;;;;13.60;11.35;;;;;;;23.38;51.70;102408.72;4965394;28;20138;-74
2021/07/22 00:42:00;;;;;;;14.18;11.07;;;;;;;23.38;51.38;102409.59;4980911;28;20030;-74
2021/07/22 00:44:26;;;;;;;14.07;11.55;;;;;;;23.34;51.57;102407.88;4998437;28;20026;-74
2021/07/22 00:46:51;;;;;;;12.52;11.02;;;;;;;23.35;51.36;102409.63;4997068;28;20042;-74
2021/07/22 00:49:16;;;;;;;12.25;10.90;;;;;;;23.38;51.30;102414.00;4962855;28;20042;-74
2021/07/22 00:51:42;;;;;;;12.55;10.82;;;;;;;23.36;51.59;102410.50;4996169;28;20031;-74
2021/07/22 00:54:07;;;;;;;14.50;11.07;;;;;;;23.37;51.53;102410.50;4962875;28;20038;-74
2021/07/22 00:56:34;;;;;;;13.05;11.00;;;;;;;23.39;51.42;102413.13;4996020;28;20022;-74
2021/07/22 00:59:00;;;;;;;12.38;10.88;;;;;;;23.37;51.34;102409.63;4996055;28;20023;-74
2021/07/22 01:01:26;;;;;;;16.70;13.38;;;;;;;23.35;51.90;102409.63;4962643;28;20485;-74
2021/07/22 01:03:51;;;;;;;15.43;12.85;;;;;;;23.37;51.41;102413.13;4996026;28;20109;-74
2021/07/22 01:06:17;;;;;;;11.40;10.02;;;;;;;23.37;51.64;102410.50;4978436;28;20030;-74
2021/07/22 01:08:42;;;;;;;13.02;10.43;;;;;;;23.35;51.34;102400.84;4978363;28;20088;-74
2021/07/22 01:11:07;;;;;;;12.88;10.88;;;;;;;23.36;51.40;102405.25;4962943;28;20081;-74
2021/07/22 01:13:33;;;;;;;13.65;11.55;;;;;;;23.34;51.57;102404.34;4978374;28;20030;-74
2021/07/22 01:15:58;;;;;;;11.43;9.98;;;;;;;23.37;51.49;102407.00;4977534;28;20042;-74
2021/07/22 01:18:24;;;;;;;13.18;11.07;;;;;;;23.34;51.54;102397.31;4995755;28;20022;-74
2021/07/22 01:20:49;;;;;;;10.98;9.35;;;;;;;23.35;51.21;102395.56;4962590;28;20042;-74
2021/07/22 01:23:15;;;;;;;11.32;10.18;;;;;;;23.34;51.28;102404.34;4978234;28;20058;-74
2021/07/22 01:25:40;;;;;;;12.80;10.75;;;;;;;23.35;51.21;102395.56;4946631;28;20061;-73
2021/07/22 01:28:05;;;;;;;11.43;10.15;;;;;;;23.33;51.44;102403.47;4964492;28;20065;-74
2021/07/22 01:30:31;;;;;;;11.80;10.23;;;;;;;23.35;51.24;102399.06;4979956;28;20027;-73
2021/07/22 01:32:56;;;;;;;13.35;10.40;;;;;;;23.35;51.19;102403.47;4964617;28;20438;-74
2021/07/22 01:35:21;;;;;;;13.43;11.20;;;;;;;23.34;51.39;102404.34;4997148;28;20053;-74
2021/07/22 01:37:50;;;;;;;13.43;10.40;;;;;;;23.34;51.12;102404.34;4978051;28;20038;-74
2021/07/22 01:40:16;;;;;;;10.95;9.18;;;;;;;23.34;51.16;102399.06;4984304;28;20585;-74
2021/07/22 01:42:41;;;;;;;11.88;9.73;;;;;;;23.32;51.08;102399.06;4958627;28;20117;-74
2021/07/22 01:45:08;;;;;;;14.88;10.88;;;;;;;23.34;51.12;102401.72;4958539;28;20130;-74
2021/07/22 01:47:37;;;;;;;11.75;10.55;;;;;;;23.34;51.10;102401.72;4975628;28;20066;-74
2021/07/22 01:50:03;;;;;;;11.30;10.10;;;;;;;23.33;51.16;102400.84;4976001;28;20043;-74
2021/07/22 01:52:29;;;;;;;11.52;9.57;;;;;;;23.33;51.24;102395.56;4975823;28;20113;-74
2021/07/22 01:54:54;;;;;;;12.88;10.43;;;;;;;23.32;51.19;102390.28;4975951;28;20109;-73
2021/07/22 01:57:20;;;;;;;12.57;10.23;;;;;;;23.32;51.07;102390.28;4942353;28;20374;-74
2021/07/22 01:59:45;;;;;;;11.45;9.45;;;;;;;23.31;51.22;102388.50;4958349;28;20038;-74
2021/07/22 02:02:11;;;;;;;10.10;8.77;;;;;;;23.32;51.18;102390.28;4958282;28;20054;-74
2021/07/22 02:04:38;;;;;;;12.85;10.77;;;;;;;23.33;51.08;102395.56;4975426;28;20102;-74
2021/07/22 02:07:04;;;;;;;11.43;9.73;;;;;;;23.33;51.05;102392.03;4975384;28;20034;-74
2021/07/22 02:09:29;;;;;;;12.25;9.55;;;;;;;23.30;51.13;102387.63;4941934;28;20039;-74
2021/07/22 02:11:56;;;;;;;11.23;9.68;;;;;;;23.30;50.96;102386.75;4958008;28;20105;-74
2021/07/22 02:14:22;;;;;;;13.25;10.35;;;;;;;23.32;50.95;102395.56;4975336;28;20106;-73
2021/07/22 02:16:48;;;;;;;11.23;9.80;;;;;;;23.31;50.93;102389.38;4975354;28;20529;-74
2021/07/22 02:19:14;;;;;;;10.35;9.30;;;;;;;23.29;50.94;102388.50;4975411;28;20069;-74
2021/07/22 02:21:40;;;;;;;11.85;9.95;;;;;;;23.32;50.84;102390.28;4975212;28;20057;-74
2021/07/22 02:24:07;;;;;;;12.15;10.52;;;;;;;23.28;50.76;102388.50;4975150;28;20049;-74
2021/07/22 02:26:33;;;;;;;10.65;9.48;;;;;;;23.31;50.95;102389.38;4957828;28;20037;-74
2021/07/22 02:28:59;;;;;;;9.60;8.70;;;;;;;23.27;50.88;102384.97;4958046;28;20045;-74
2021/07/22 02:31:24;;;;;;;11.27;9.45;;;;;;;23.29;50.84;102384.97;4975068;28;20117;-74
2021/07/22 02:33:50;;;;;;;11.10;9.77;;;;;;;23.30;50.95;102395.53;4957847;28;20046;-74
2021/07/22 02:36:15;;;;;;;10.38;9.27;;;;;;;23.28;50.89;102392.03;4974937;28;20032;-74
2021/07/22 02:38:40;;;;;;;11.65;9.48;;;;;;;23.30;50.82;102392.03;4941793;28;20054;-74
2021/07/22 02:41:06;;;;;;;10.95;8.82;;;;;;;23.30;50.82;102394.66;4978751;28;20046;-74
2021/07/22 02:43:32;;;;;;;11.95;9.48;;;;;;;23.30;50.75;102397.31;4974868;28;20093;-74
2021/07/22 02:45:58;;;;;;;11.52;9.13;;;;;;;23.28;50.66;102394.66;4957767;28;20418;-73
2021/07/22 02:48:23;;;;;;;10.15;8.55;;;;;;;23.30;50.67;102394.66;4941360;28;20035;-74
2021/07/22 02:50:49;;;;;;;11.52;8.48;;;;;;;23.28;50.75;102392.03;4957571;28;20129;-74
2021/07/22 02:53:14;;;;;;;10.18;8.57;;;;;;;23.29;50.90;102398.19;4957437;28;20118;-74
2021/07/22 02:55:39;;;;;;;11.13;9.30;;;;;;;23.30;50.67;102397.31;4941551;28;20043;-74
2021/07/22 02:58:06;;;;;;;9.90;8.82;;;;;;;23.29;50.66;102398.19;4957718;28;20066;-74
2021/07/22 03:00:31;;;;;;;9.95;8.88;;;;;;;23.29;50.59;102395.53;4957432;28;20059;-74
2021/07/22 03:03:01;;;;;;;11.85;8.45;;;;;;;23.27;50.59;102392.03;4957247;28;20038;-74
2021/07/22 03:05:30;;;;;;;11.10;9.02;;;;;;;23.29;50.67;102395.53;4974905;28;20106;-74
2021/07/22 03:07:56;;;;;;;13.30;10.73;;;;;;;23.25;50.42;102393.78;4941408;28;20121;-74
2021/07/22 03:10:25;;;;;;;10.70;8.80;;;;;;;23.26;50.72;102393.78;4957434;28;20493;-74
2021/07/22 03:12:52;;;;;;;10.68;9.25;;;;;;;23.27;50.65;102402.56;4974626;28;20022;-74
2021/07/22 03:15:18;;;;;;;11.57;9.20;;;;;;;23.27;50.54;102398.19;4957292;28;20081;-74
2021/07/22 03:17:43;;;;;;;10.35;9.32;;;;;;;23.27;50.59;102394.66;4957131;28;20023;-72
2021/07/22 03:20:09;;;;;;;11.70;9.80;;;;;;;23.26;50.59;102395.53;4974923;28;20105;-71
2021/07/22 03:22:34;;;;;;;9.80;8.82;;;;;;;23.23;50.34;102388.53;4957127;28;20041;-72
2021/07/22 03:24:59;;;;;;;10.25;8.52;;;;;;;23.20;50.61;102385.00;4974652;28;20039;-72
2021/07/22 03:27:25;;;;;;;12.05;9.80;;;;;;;23.24;50.59;102384.97;4957179;28;20031;-72
2021/07/22 03:29:50;;;;;;;11.13;9.02;;;;;;;23.23;50.48;102388.53;4957228;28;20030;-73
2021/07/22 03:32:15;;;;;;;11.32;9.90;;;;;;;23.24;50.61;102386.75;4957116;28;20041;-73
2021/07/22 03:34:41;;;;;;;12.13;9.32;;;;;;;23.23;50.44;102391.16;4974662;28;20026;-75
2021/07/22 03:37:06;;;;;;;10.82;9.63;;;;;;;23.24;50.52;102390.25;4974887;28;20031;-74
2021/07/22 03:39:31;;;;;;;10.80;9.20;;;;;;;23.24;50.48;102392.91;4959208;28;20031;-74
2021/07/22 03:41:57;;;;;;;10.63;9.60;;;;;;;23.21;50.36;102389.41;4962701;28;20031;-74
2021/07/22 03:44:22;;;;;;;10.88;9.57;;;;;;;23.21;50.55;102389.41;4979191;28;20031;-74
2021/07/22 03:46:47;;;;;;;9.68;8.68;;;;;;;23.20;50.50;102391.16;4961644;28;20038;-74
2021/07/22 03:49:13;;;;;;;10.65;9.60;;;;;;;23.23;50.50;102385.00;4945923;28;20030;-74
2021/07/22 03:51:38;;;;;;;11.95;9.50;;;;;;;23.23;50.43;102390.28;4945740;28;20370;-74
2021/07/22 03:54:05;;;;;;;10.45;9.35;;;;;;;23.24;50.54;102392.03;4978045;28;20039;-74
2021/07/22 03:56:33;;;;;;;11.13;9.80;;;;;;;23.24;50.36;102386.75;4960658;28;20416;-74
2021/07/22 03:58:58;;;;;;;9.75;8.52;;;;;;;23.20;50.43;102382.34;4960417;28;20437;-74
2021/07/22 04:01:23;;;;;;;11.63;10.43;;;;;;;23.22;50.54;102384.13;4977646;28;20035;-74
2021/07/22 04:03:49;;;;;;;11.10;9.40;;;;;;;23.22;50.42;102392.03;4960361;28;20548;-74
2021/07/22 04:06:15;;;;;;;9.93;8.93;;;;;;;23.23;50.56;102393.81;4977669;28;20031;-74
2021/07/22 04:08:40;;;;;;;10.68;8.88;;;;;;;23.23;50.41;102392.91;4944234;28;20066;-74
2021/07/22 04:11:08;;;;;;;9.68;7.78;;;;;;;23.23;50.37;102391.16;4944193;28;20121;-74
2021/07/22 04:13:34;;;;;;;10.25;9.18;;;;;;;23.24;50.31;102395.53;4944544;28;20085;-74
2021/07/22 04:16:03;;;;;;;11.52;10.30;;;;;;;23.24;50.27;102389.41;4977291;28;20497;-71
2021/07/22 04:18:29;;;;;;;11.55;9.77;;;;;;;23.24;50.31;102400.81;4977472;28;20513;-71
2021/07/22 04:20:55;;;;;;;12.15;9.25;;;;;;;23.25;50.30;102399.94;4943971;28;20117;-71
2021/07/22 04:23:21;;;;;;;10.65;8.63;;;;;;;23.25;50.46;102401.69;4943807;28;20125;-72
2021/07/22 04:25:46;;;;;;;11.73;10.20;;;;;;;23.26;50.22;102398.19;4977285;28;20548;-73
2021/07/22 04:28:12;;;;;;;10.40;9.32;;;;;;;23.27;50.28;102394.66;4943780;28;20039;-73
2021/07/22 04:30:38;;;;;;;9.75;8.55;;;;;;;23.25;50.25;102399.94;4977342;28;20035;-73
2021/07/22 04:33:03;;;;;;;10.80;8.57;;;;;;;23.23;49.78;102407.00;4959789;28;20049;-73
2021/07/22 04:35:30;;;;;;;11.27;10.07;;;;;;;23.15;49.84;102399.06;4959764;28;20030;-73
2021/07/22 04:37:55;;;;;;;10.05;8.48;;;;;;;23.13;49.78;102407.84;4959883;28;20494;-73
2021/07/22 04:40:20;;;;;;;10.27;8.75;;;;;;;23.05;49.31;102406.97;4963914;28;20047;-74
2021/07/22 04:42:45;;;;;;;10.52;8.27;;;;;;;23.04;49.02;102406.09;4975709;28;20046;-73
2021/07/22 04:45:13;;;;;;;12.23;8.20;;;;;;;22.99;48.97;102402.56;4976788;28;20035;-73
2021/07/22 04:47:38;;;;;;;10.52;8.82;;;;;;;22.98;48.44;102411.34;4975792;28;20043;-72
2021/07/22 04:50:04;;;;;;;10.43;8.35;;;;;;;22.96;48.50;102404.34;4959341;28;20151;-72
2021/07/22 04:52:29;;;;;;;10.68;8.15;;;;;;;22.97;48.24;102406.09;4975639;28;20031;-73
2021/07/22 04:54:54;;;;;;;8.10;7.03;;;;;;;22.94;47.88;102403.47;4943399;28;20530;-72
2021/07/22 04:57:20;;;;;;;9.02;7.78;;;;;;;22.93;47.49;102410.50;4975406;28;20506;-72
2021/07/22 04:59:45;;;;;;;9.60;7.82;;;;;;;22.92;47.63;102408.72;4976473;28;20409;-72
2021/07/22 05:02:10;;;;;;;11.32;7.55;;;;;;;22.60;47.76;102411.25;4976445;28;20035;-72
2021/07/22 05:04:36;;;;;;;10.18;8.57;;;;;;;22.34;48.24;102419.06;4976461;28;20034;-72
2021/07/22 05:07:01;;;;;;;11.00;8.05;;;;;;;22.24;48.11;102421.66;4975173;28;20053;-73
2021/07/22 05:09:26;;;;;;;11.52;6.55;;;;;;;22.23;48.08;102420.78;4975217;28;20111;-72
2021/07/22 05:11:52;;;;;;;10.20;7.38;;;;;;;22.17;48.07;102417.25;4975356;28;20470;-72
2021/07/22 05:14:17;;;;;;;8.55;6.88;;;;;;;22.12;47.86;102418.97;4958966;28;20027;-72
2021/07/22 05:16:42;;;;;;;9.48;7.35;;;;;;;21.99;48.31;102423.31;4958877;28;20089;-72
2021/07/22 05:19:09;;;;;;;10.90;7.00;;;;;;;22.02;48.10;102418.94;4976616;28;20066;-72
2021/07/22 05:21:35;;;;;;;10.75;6.63;;;;;;;21.95;47.93;102410.94;4975468;28;20133;-72
2021/07/22 05:24:00;;;;;;;8.07;6.35;;;;;;;21.85;48.45;102422.31;4959215;28;20117;-72
2021/07/22 05:26:25;;;;;;;6.97;5.85;;;;;;;21.90;48.37;102417.97;4959549;28;20081;-73
2021/07/22 05:28:51;;;;;;;8.20;6.78;;;;;;;21.87;48.11;102420.56;4975327;28;20456;-74
2021/07/22 05:31:16;;;;;;;7.57;6.65;;;;;;;21.67;48.34;102425.72;4976170;28;20039;-72
2021/07/22 05:33:42;;;;;;;12.50;6.95;;;;;;;21.73;48.24;102420.47;4976927;28;20030;-70
2021/07/22 05:36:08;;;;;;;10.10;6.10;;;;;;;21.82;48.13;102428.44;4975893;28;20037;-74
2021/07/22 05:38:36;;;;;;;14.60;7.70;;;;;;;21.72;47.67;102419.59;4974565;28;20034;-71
2021/07/22 05:41:03;;;;;;;11.65;8.30;;;;;;;21.74;48.14;102414.34;4975713;28;20175;-70
2021/07/22 05:43:28;;;;;;;15.27;10.07;;;;;;;21.86;47.64;102424.06;4942521;28;20035;-71
2021/07/22 05:45:54;;;;;;;10.18;8.00;;;;;;;21.92;47.67;102432.03;4958253;28;20026;-71
2021/07/22 05:48:20;;;;;;;8.75;7.65;;;;;;;21.85;47.71;102432.84;4975589;28;20085;-70
2021/07/22 05:50:46;;;;;;;12.10;10.05;;;;;;;21.77;48.24;102426.66;4958360;28;20026;-71
2021/07/22 05:53:12;;;;;;;13.85;7.93;;;;;;;21.99;47.41;102423.31;4975580;28;20055;-70
2021/07/22 05:55:37;;;;;;;8.68;6.93;;;;;;;21.52;48.13;102418.59;4975575;28;20019;-71
2021/07/22 05:58:03;;;;;;;10.75;7.50;;;;;;;21.77;47.63;102427.53;4942005;28;20026;-71
2021/07/22 06:00:28;;;;;;;7.50;6.70;;;;;;;21.37;48.20;102421.97;4975483;28;20066;-71
2021/07/22 06:02:53;;;;;;;7.20;6.50;;;;;;;21.39;48.10;102425.50;4974784;28;20362;-70
2021/07/22 06:05:19;;;;;;;8.20;6.10;;;;;;;21.26;48.48;102426.28;4975294;28;20120;-70
2021/07/22 06:07:46;;;;;;;7.43;5.88;;;;;;;21.20;48.43;102425.34;4957895;28;20027;-70
2021/07/22 06:10:12;;;;;;;8.45;5.88;;;;;;;21.44;48.24;102419.38;4975140;28;20030;-70
2021/07/22 06:12:38;;;;;;;7.72;6.10;;;;;;;21.28;48.67;102415.78;4975135;28;20157;-70
2021/07/22 06:15:04;;;;;;;8.23;6.30;;;;;;;21.48;48.17;102419.44;4941887;28;20125;-71
2021/07/22 06:17:29;;;;;;;11.73;7.38;;;;;;;21.75;47.62;102430.16;4975004;28;20031;-70
2021/07/22 06:19:54;;;;;;;9.90;6.40;;;;;;;21.58;47.79;102426.53;4975361;28;20118;-70
2021/07/22 06:22:20;;;;;;;7.13;5.60;;;;;;;21.35;48.11;102418.47;4975298;28;20122;-70
2021/07/22 06:24:45;;;;;;;8.32;5.93;;;;;;;21.18;48.85;102422.66;4957944;28;20023;-70
2021/07/22 06:27:12;;;;;;;7.93;6.38;;;;;;;21.32;48.58;102418.44;4941764;28;20065;-70
2021/07/22 06:29:37;;;;;;;6.80;6.05;;;;;;;21.22;48.22;102424.47;4975011;28;20089;-70
2021/07/22 06:32:03;;;;;;;8.68;5.95;;;;;;;21.23;48.54;102423.63;4957703;28;20039;-70
2021/07/22 06:34:28;;;;;;;7.15;5.45;;;;;;;21.17;49.00;102427.91;4957761;28;20074;-72
2021/07/22 06:36:54;;;;;;;6.75;5.22;;;;;;;21.25;48.67;102423.63;4975183;28;20434;-71
2021/07/22 06:39:19;;;;;;;8.80;5.35;;;;;;;20.96;49.29;102424.22;4957711;28;20061;-70
2021/07/22 06:41:45;;;;;;;9.80;6.10;;;;;;;20.86;49.30;102427.63;4976385;28;20058;-70
2021/07/22 06:44:10;;;;;;;7.95;5.60;;;;;;;20.74;49.84;102416.97;4994064;28;20535;-70
2021/07/22 06:46:35;;;;;;;6.80;5.22;;;;;;;20.83;49.81;102426.69;4976697;28;20027;-70
2021/07/22 06:49:01;;;;;;;7.93;5.25;;;;;;;20.95;49.62;102421.56;4976802;28;20446;-70
2021/07/22 06:51:29;;;;;;;7.13;4.97;;;;;;;20.99;49.61;102428.63;4994311;28;20537;-70
2021/07/22 06:53:55;;;;;;;6.93;5.30;;;;;;;21.13;49.17;102429.63;4977430;28;20037;-74
2021/07/22 06:56:20;;;;;;;8.15;5.50;;;;;;;21.08;49.29;102422.56;4996066;28;20022;-73
2021/07/22 06:58:48;;;;;;;8.60;5.07;;;;;;;21.04;49.69;102427.78;4977780;28;20033;-73
2021/07/22 07:01:14;;;;;;;7.45;5.38;;;;;;;21.10;49.63;102432.22;4995001;28;20037;-73
2021/07/22 07:03:39;;;;;;;7.97;5.95;;;;;;;21.30;49.12;102429.78;4960724;28;20034;-73
2021/07/22 07:06:04;;;;;;;5.40;4.70;;;;;;;21.25;48.95;102423.63;4994053;28;20066;-73
2021/07/22 07:08:29;;;;;;;8.40;4.95;;;;;;;21.46;48.73;102425.53;4976770;28;20034;-73
2021/07/22 07:10:55;;;;;;;7.63;4.95;;;;;;;21.78;48.13;102431.94;4960396;28;20084;-73
2021/07/22 07:13:20;;;;;;;7.88;4.90;;;;;;;21.96;47.81;102444.31;4993925;28;20030;-72
2021/07/22 07:15:45;;;;;;;11.50;6.07;;;;;;;21.99;47.93;102440.00;4997279;28;20026;-73
2021/07/22 07:18:11;;;;;;;10.80;7.32;;;;;;;22.23;47.28;102441.00;4998033;28;20026;-73
2021/07/22 07:20:36;;;;;;;12.55;6.40;;;;;;;22.35;47.39;102436.66;4998112;28;20030;-72
2021/07/22 07:23:02;;;;;;;9.35;6.50;;;;;;;22.45;46.76;102427.03;4980196;28;20101;-72
2021/07/22 07:25:27;;;;;;;10.57;7.38;;;;;;;22.56;46.78;102427.97;4980197;28;20041;-72
2021/07/22 07:27:53;;;;;;;9.70;7.47;;;;;;;22.64;46.82;102425.34;4979982;28;20114;-73
2021/07/22 07:30:19;;;;;;;10.45;6.45;;;;;;;22.74;46.63;102429.75;4980253;28;20100;-72
2021/07/22 07:32:46;;;;;;;9.80;7.88;;;;;;;22.79;46.54;102430.69;4980018;28;20030;-73
2021/07/22 07:35:12;;;;;;;10.55;7.00;;;;;;;22.93;46.42;102439.50;4997618;28;20033;-72
2021/07/22 07:37:38;;;;;;;9.88;7.18;;;;;;;23.06;46.17;102435.13;4997494;28;20457;-72
2021/07/22 07:40:04;;;;;;;9.48;8.15;;;;;;;23.08;46.28;102444.81;4979804;28;20065;-72
2021/07/22 07:42:30;;;;;;;8.02;7.15;;;;;;;23.06;46.48;102429.84;4997505;28;20049;-73
2021/07/22 07:44:55;;;;;;;10.18;8.32;;;;;;;23.12;46.47;102441.28;4964138;28;20034;-72
2021/07/22 07:47:21;;;;;;;12.15;7.65;;;;;;;23.21;46.46;102436.91;4979721;28;20033;-72
2021/07/22 07:49:46;;;;;;;9.15;8.15;;;;;;;23.26;46.37;102438.66;4997274;28;20365;-72
2021/07/22 07:52:11;;;;;;;10.18;8.48;;;;;;;23.29;46.55;102443.94;4980019;28;20026;-72
2021/07/22 07:54:37;;;;;;;9.23;8.32;;;;;;;23.29;46.51;102441.28;4997273;28;20057;-72
2021/07/22 07:57:02;;;;;;;10.05;7.65;;;;;;;23.31;46.63;102431.63;4997291;28;20097;-72
2021/07/22 07:59:28;;;;;;;10.43;9.02;;;;;;;23.31;46.55;102433.38;4979604;28;20045;-73
2021/07/22 08:01:53;;;;;;;9.32;7.05;;;;;;;23.39;46.33;102426.31;4963633;28;20121;-72
2021/07/22 08:04:18;;;;;;;9.48;8.25;;;;;;;23.49;46.34;102422.81;4979632;28;20034;-73
2021/07/22 08:06:44;;;;;;;10.77;8.82;;;;;;;23.51;46.44;102423.72;4979726;28;20030;-72
2021/07/22 08:09:09;;;;;;;8.63;7.60;;;;;;;23.55;46.13;102429.88;4963373;28;20030;-72
2021/07/22 08:11:34;;;;;;;15.57;8.05;;;;;;;23.59;46.47;102427.25;4963377;28;20030;-72
2021/07/22 08:14:00;;;;;;;9.13;8.00;;;;;;;23.63;46.44;102433.41;4979456;28;20049;-72
2021/07/22 08:16:25;;;;;;;10.15;6.93;;;;;;;23.67;46.54;102437.78;4997079;28;20085;-73
2021/07/22 08:18:51;;;;;;;7.65;6.95;;;;;;;23.62;46.59;102437.81;4997007;28;20037;-73
2021/07/22 08:21:16;;;;;;;10.15;8.27;;;;;;;23.66;46.56;102434.25;4979379;28;20062;-72
2021/07/22 08:23:42;;;;;;;8.60;7.20;;;;;;;23.67;46.61;102428.09;4963311;28;20385;-73
2021/07/22 08:26:09;;;;;;;10.85;7.93;;;;;;;23.68;46.55;102426.34;4978688;28;20045;-73
2021/07/22 08:28:35;;;;;;;8.65;6.95;;;;;;;23.73;46.77;102436.03;4963109;28;20029;-72
2021/07/22 08:31:00;;;;;;;8.73;7.70;;;;;;;23.74;46.59;102429.00;4979152;28;20070;-73
2021/07/22 08:33:25;;;;;;;10.80;7.07;;;;;;;23.77;46.68;102426.31;4979449;28;20121;-73
2021/07/22 08:35:51;;;;;;;10.30;7.57;;;;;;;23.78;46.61;102426.31;4963087;28;20034;-73
2021/07/22 08:38:16;;;;;;;9.15;7.28;;;;;;;23.79;46.68;102424.56;4996815;28;20028;-73
2021/07/22 08:40:41;;;;;;;8.32;7.07;;;;;;;23.73;46.82;102436.03;4991841;28;20055;-72
2021/07/22 08:43:07;;;;;;;7.80;6.82;;;;;;;23.77;46.88;102428.97;4959693;28;20030;-73
2021/07/22 08:45:33;;;;;;;12.20;7.00;;;;;;;23.80;46.81;102429.84;4976976;28;20031;-73
2021/07/22 08:47:58;;;;;;;7.80;7.00;;;;;;;23.81;46.95;102425.44;4959690;28;20097;-73
2021/07/22 08:50:24;;;;;;;8.88;6.70;;;;;;;23.77;47.12;102421.03;4977130;28;20436;-72
2021/07/22 08:52:51;;;;;;;7.82;6.75;;;;;;;23.79;47.20;102422.78;4976997;28;20080;-73
2021/07/22 08:55:16;;;;;;;8.52;7.18;;;;;;;23.83;47.04;102429.84;4976754;28;20023;-72
2021/07/22 08:57:43;;;;;;;7.18;6.45;;;;;;;23.86;46.84;102426.31;4976986;28;20122;-73
2021/07/22 09:00:09;;;;;;;9.95;7.13;;;;;;;23.86;47.17;102428.97;4977218;28;20027;-72
2021/07/22 09:02:35;;;;;;;8.93;7.25;;;;;;;23.87;47.30;102425.44;4976872;28;20084;-73
2021/07/22 09:05:03;;;;;;;7.80;6.78;;;;;;;23.88;47.25;102421.91;4959422;28;20034;-73
2021/07/22 09:07:30;;;;;;;9.48;6.78;;;;;;;23.85;47.14;102422.78;4959491;28;20035;-73
2021/07/22 09:10:04;;;;;;;8.52;7.70;;;;;;;23.89;47.46;102421.00;4976645;28;20035;-73
2021/07/22 09:12:43;;;;;;;9.05;7.25;;;;;;;23.89;47.16;102422.78;4976682;28;20023;-73
2021/07/22 09:15:19;;;;;;;8.68;7.18;;;;;;;23.90;47.09;102420.13;4976474;28;20034;-73
2021/07/22 09:17:44;;;;;;;9.57;7.63;;;;;;;23.90;47.11;102424.53;4978189;28;20029;-73
2021/07/22 09:20:11;;;;;;;8.10;6.53;;;;;;;23.88;47.21;102423.69;4979547;28;20117;-73
2021/07/22 09:22:42;;;;;;;8.38;6.70;;;;;;;23.88;47.18;102427.19;4958893;28;20065;-73
2021/07/22 09:25:09;;;;;;;8.25;7.10;;;;;;;23.88;47.49;102429.84;4959742;28;20038;-73
2021/07/22 09:27:41;;;;;;;7.95;7.15;;;;;;;23.90;47.45;102430.69;4958742;28;20541;-73
2021/07/22 09:30:08;;;;;;;6.82;6.20;;;;;;;23.91;47.33;102434.22;4976176;28;20042;-73
2021/07/22 09:32:35;;;;;;;7.82;6.50;;;;;;;23.92;47.51;102434.22;4976013;28;20034;-73
2021/07/22 09:35:15;;;;;;;6.60;5.90;;;;;;;23.84;47.75;102428.06;4976090;28;20059;-73
2021/07/22 09:37:44;;;;;;;7.40;6.63;;;;;;;23.81;47.50;102434.25;4975277;28;20029;-73
2021/07/22 09:40:14;;;;;;;8.35;7.45;;;;;;;23.85;47.73;102435.13;4958325;28;20370;-73
2021/07/22 09:42:47;;;;;;;7.00;6.30;;;;;;;23.88;47.75;102440.41;4975896;28;20023;-73
2021/07/22 09:45:14;;;;;;;7.45;6.65;;;;;;;23.90;47.74;102443.03;4975792;28;20477;-73
2021/07/22 09:47:39;;;;;;;6.85;6.15;;;;;;;23.86;47.81;102439.53;4975674;28;20114;-73
2021/07/22 09:50:13;;;;;;;7.03;6.20;;;;;;;23.90;47.49;102437.72;4975640;28;20165;-73
2021/07/22 09:52:39;;;;;;;6.97;6.22;;;;;;;23.90;47.52;102441.25;4943538;28;20034;-73
2021/07/22 09:55:22;;;;;;;9.18;7.05;;;;;;;23.84;47.81;102442.16;4975774;28;20043;-73
2021/07/22 09:57:53;;;;;;;8.38;6.88;;;;;;;23.82;47.70;102435.13;4976095;28;20022;-73
2021/07/22 10:00:18;;;;;;;9.35;7.28;;;;;;;23.81;47.78;102430.72;4976138;28;20073;-73
2021/07/22 10:02:44;;;;;;;6.70;6.00;;;;;;;23.84;47.93;102433.38;4959165;28;20038;-73
2021/07/22 10:05:12;;;;;;;8.95;6.15;;;;;;;23.86;47.73;102435.13;4958698;28;20093;-73
2021/07/22 10:07:40;;;;;;;7.68;6.80;;;;;;;23.88;47.82;102440.41;4976003;28;20035;-73
2021/07/22 10:10:06;;;;;;;8.45;6.22;;;;;;;23.89;48.00;102439.50;4958692;28;20031;-73
2021/07/22 10:12:34;;;;;;;7.30;6.60;;;;;;;23.88;48.00;102426.31;4978753;28;20050;-73
2021/07/22 10:15:01;;;;;;;6.47;5.20;;;;;;;23.88;47.84;102432.47;4976154;28;20106;-73
2021/07/22 10:17:31;;;;;;;7.43;6.63;;;;;;;23.85;47.83;102422.78;4958388;28;20037;-73
2021/07/22 10:19:58;;;;;;;7.00;6.07;;;;;;;23.88;48.03;102428.97;4975083;28;20045;-73
2021/07/22 10:22:24;;;;;;;7.80;6.13;;;;;;;23.86;47.79;102426.31;4957763;28;20558;-73
2021/07/22 10:24:51;;;;;;;8.05;6.88;;;;;;;23.87;47.79;102428.06;4941723;28;20392;-73
2021/07/22 10:27:17;;;;;;;6.10;5.43;;;;;;;23.85;47.91;102427.19;4975113;28;20073;-73
2021/07/22 10:29:45;;;;;;;7.28;6.20;;;;;;;23.87;47.99;102425.44;4957602;28;20416;-73
2021/07/22 10:32:12;;;;;;;6.60;5.72;;;;;;;23.88;48.04;102426.31;4958076;28;20034;-73
2021/07/22 10:34:38;;;;;;;6.85;5.82;;;;;;;23.87;48.14;102422.78;4941804;28;20034;-73
2021/07/22 10:37:04;;;;;;;7.05;5.65;;;;;;;23.88;47.97;102423.69;4957633;28;20035;-71
2021/07/22 10:40:10;;;;;;;7.22;6.22;;;;;;;23.88;47.94;102418.38;4974940;28;20097;-73
2021/07/22 10:42:43;;;;;;;8.00;5.95;;;;;;;23.81;48.15;102405.19;4974879;28;20058;-73
2021/07/22 10:45:20;;;;;;;7.32;5.70;;;;;;;23.85;48.23;102417.50;4974852;28;20035;-73
2021/07/22 10:48:05;;;;;;;5.80;5.22;;;;;;;23.86;47.88;102416.63;4957112;28;20041;-73
2021/07/22 10:50:40;;;;;;;7.20;6.13;;;;;;;23.81;48.23;102421.03;4957761;28;20039;-73
2021/07/22 10:53:06;;;;;;;6.20;5.60;;;;;;;23.81;48.26;102410.47;4958488;28;20441;-73
2021/07/22 10:55:50;;;;;;;6.65;5.70;;;;;;;23.83;48.06;102414.00;4957967;28;20037;-73
2021/07/22 10:58:24;;;;;;;;;;;;;;;23.82;48.24;102412.22;4957897;28;20023;-73
2021/07/22 11:00:51;;;;;;;7.78;6.15;;;;;;;23.78;48.12;102409.59;4974732;28;20425;-73
2021/07/22 11:03:38;;;;;;;6.18;5.57;;;;;;;23.79;48.39;102401.66;4974793;28;20048;-73
2021/07/22 11:06:06;;;;;;;6.63;5.75;;;;;;;23.81;48.15;102413.09;4974634;28;20033;-73
2021/07/22 11:08:39;;;;;;;6.85;6.15;;;;;;;23.84;48.08;102414.88;4974518;28;20474;-73
2021/07/22 11:11:09;;;;;;;7.15;5.53;;;;;;;23.80;48.34;102406.06;4957418;28;20039;-73
2021/07/22 11:13:34;;;;;;;6.28;5.50;;;;;;;23.80;48.40;102410.47;4974744;28;20035;-73
2021/07/22 11:16:21;;;;;;;7.38;6.00;;;;;;;23.76;48.36;102404.31;4974746;28;20150;-73